createdAt,value
2018-06-21T00:01:36.504Z,100603.09
2018-06-21T00:04:04.547Z,100604.08
2018-06-21T00:06:32.545Z,100598.95
2018-06-21T00:09:00.568Z,100600.70
2018-06-21T00:11:28.585Z,100599.84
2018-06-21T00:13:56.620Z,100597.73
2018-06-21T00:16:24.694Z,100594.41
2018-06-21T00:18:52.697Z,100590.48
2018-06-21T00:21:20.689Z,100586.34
2018-06-21T00:23:48.676Z,100584.48
2018-06-21T00:26:16.657Z,100584.05
2018-06-21T00:28:44.721Z,100581.48
2018-06-21T00:31:12.742Z,100575.47
2018-06-21T00:33:40.834Z,100576.11
2018-06-21T00:36:08.863Z,100569.53
2018-06-21T00:38:36.853Z,100570.05
2018-06-21T00:41:04.868Z,100568.29
2018-06-21T00:43:32.908Z,100570.32
2018-06-21T00:46:01.733Z,100567.20
2018-06-21T00:48:29.733Z,100553.95
2018-06-21T00:50:57.769Z,100555.09
2018-06-21T00:53:25.809Z,100552.28
2018-06-21T00:56:05.293Z,100544.81
2018-06-21T00:58:33.296Z,100545.15
2018-06-21T01:01:01.304Z,100543.80
2018-06-21T01:03:29.301Z,100540.82
2018-06-21T01:05:57.325Z,100545.66
2018-06-21T01:08:25.338Z,100546.37
2018-06-21T01:10:53.356Z,100537.81
2018-06-21T01:13:21.368Z,100531.35
2018-06-21T01:15:49.384Z,100525.44
2018-06-21T01:18:17.889Z,100526.00
2018-06-21T01:20:45.881Z,100523.60
2018-06-21T01:23:13.890Z,100515.23
2018-06-21T01:25:42.017Z,100508.86
2018-06-21T01:28:10.014Z,100500.99
2018-06-21T01:30:38.022Z,100503.91
2018-06-21T01:33:06.050Z,100505.09
2018-06-21T01:35:34.090Z,100493.87
2018-06-21T01:38:02.084Z,100489.24
2018-06-21T01:40:30.089Z,100486.14
2018-06-21T01:42:58.116Z,100482.25
2018-06-21T01:45:26.225Z,100491.02
2018-06-21T01:47:54.231Z,100489.05
2018-06-21T01:50:22.247Z,100489.23
2018-06-21T01:52:50.276Z,100479.30
2018-06-21T01:55:18.308Z,100489.05
2018-06-21T01:57:46.304Z,100489.45
2018-06-21T02:00:14.341Z,100488.20
2018-06-21T02:02:42.908Z,100489.73
2018-06-21T02:05:10.969Z,100493.02
2018-06-21T02:07:39.183Z,100486.14
2018-06-21T02:10:07.444Z,100484.44
2018-06-21T02:12:35.486Z,100487.00
2018-06-21T02:15:03.502Z,100477.56
2018-06-21T02:17:31.531Z,100474.28
2018-06-21T02:19:59.572Z,100470.72
2018-06-21T02:22:27.580Z,100470.75
2018-06-21T02:24:55.638Z,100465.88
2018-06-21T02:27:23.633Z,100460.96
2018-06-21T02:29:51.613Z,100456.55
2018-06-21T02:32:19.667Z,100453.75
2018-06-21T02:34:47.808Z,100444.13
2018-06-21T02:37:15.869Z,100435.78
2018-06-21T02:39:43.849Z,100430.67
2018-06-21T02:42:11.856Z,100426.23
2018-06-21T02:44:40.005Z,100419.15
2018-06-21T02:47:08.029Z,100411.97
2018-06-21T02:49:36.044Z,100414.27
2018-06-21T02:52:05.012Z,100413.44
2018-06-21T02:54:33.122Z,100411.27
2018-06-21T02:57:01.122Z,100411.03
2018-06-21T02:59:29.141Z,100401.68
2018-06-21T03:01:57.148Z,100406.46
2018-06-21T03:04:25.140Z,100404.19
2018-06-21T03:06:53.133Z,100411.20
2018-06-21T03:09:21.150Z,100404.75
2018-06-21T03:11:49.145Z,100400.04
2018-06-21T03:14:17.168Z,100390.66
2018-06-21T03:16:45.202Z,100388.88
2018-06-21T03:19:13.209Z,100398.38
2018-06-21T03:21:41.216Z,100398.61
2018-06-21T03:24:10.250Z,100392.31
2018-06-21T03:26:38.240Z,100388.25
2018-06-21T03:29:06.233Z,100394.02
2018-06-21T03:31:34.247Z,100395.02
2018-06-21T03:34:02.225Z,100388.14
2018-06-21T03:36:30.231Z,100393.52
2018-06-21T03:38:58.259Z,100381.37
2018-06-21T03:41:26.260Z,100380.33
2018-06-21T03:43:54.273Z,100382.26
2018-06-21T03:46:22.270Z,100381.47
2018-06-21T03:48:50.344Z,100376.44
2018-06-21T03:51:18.333Z,100380.53
2018-06-21T03:53:46.347Z,100374.89
2018-06-21T03:56:14.313Z,100371.17
2018-06-21T03:58:42.332Z,100370.06
2018-06-21T04:03:30.054Z,100362.08
2018-06-21T04:05:58.029Z,100350.58
2018-06-21T04:08:26.095Z,100354.83
2018-06-21T04:10:54.022Z,100346.94
2018-06-21T04:13:22.132Z,100342.27
2018-06-21T04:15:50.127Z,100340.75
2018-06-21T04:18:22.410Z,100333.45
2018-06-21T04:20:50.577Z,100333.70
2018-06-21T04:23:18.668Z,100322.18
2018-06-21T04:25:46.726Z,100321.50
2018-06-21T04:28:14.782Z,100313.52
2018-06-21T04:30:42.776Z,100305.35
2018-06-21T04:33:10.775Z,100302.84
2018-06-21T04:35:38.773Z,100301.18
2018-06-21T04:38:06.825Z,100302.21
2018-06-21T04:40:34.877Z,100300.32
2018-06-21T04:43:02.906Z,100295.80
2018-06-21T04:45:31.001Z,100298.67
2018-06-21T04:47:59.012Z,100300.94
2018-06-21T04:50:27.029Z,100295.25
2018-06-21T04:52:55.144Z,100294.16
2018-06-21T04:55:23.197Z,100284.62
2018-06-21T04:57:51.193Z,100281.73
2018-06-21T05:00:19.457Z,100275.70
2018-06-21T05:02:47.652Z,100259.45
2018-06-21T05:05:15.673Z,100251.41
2018-06-21T05:07:43.718Z,100246.76
2018-06-21T05:10:11.804Z,100250.89
2018-06-21T05:12:39.963Z,100243.55
2018-06-21T05:15:07.955Z,100251.08
2018-06-21T05:17:35.985Z,100254.67
2018-06-21T05:20:04.009Z,100241.74
2018-06-21T05:22:32.166Z,100244.94
2018-06-21T05:25:00.177Z,100239.40
2018-06-21T05:27:28.177Z,100241.63
2018-06-21T05:29:56.188Z,100246.58
2018-06-21T05:32:24.356Z,100282.58
2018-06-21T05:34:52.368Z,100273.91
2018-06-21T05:37:20.411Z,100267.83
2018-06-21T05:39:48.368Z,100265.52
2018-06-21T05:42:16.391Z,100273.21
2018-06-21T05:44:44.420Z,100269.28
2018-06-21T05:47:12.760Z,100265.33
2018-06-21T05:49:40.758Z,100282.97
2018-06-21T05:52:08.737Z,100291.67
2018-06-21T05:54:37.851Z,100288.10
2018-06-21T05:57:05.824Z,100272.27
2018-06-21T05:59:33.870Z,100273.73
2018-06-21T06:02:01.901Z,100270.73
2018-06-21T06:04:29.856Z,100272.30
2018-06-21T06:06:57.961Z,100281.90
2018-06-21T06:09:25.956Z,100298.98
2018-06-21T06:11:54.150Z,100301.09
2018-06-21T06:14:22.168Z,100296.55
2018-06-21T06:16:50.193Z,100291.22
2018-06-21T06:19:18.444Z,100305.20
2018-06-21T06:21:46.446Z,100314.19
2018-06-21T06:24:14.490Z,100322.25
2018-06-21T06:26:42.676Z,100337.04
2018-06-21T06:29:10.756Z,100342.52
2018-06-21T06:31:39.369Z,100340.34
2018-06-21T06:34:07.442Z,100344.68
2018-06-21T06:36:35.476Z,100329.53
2018-06-21T06:39:21.109Z,100319.97
2018-06-21T06:41:50.164Z,100330.95
2018-06-21T06:44:18.761Z,100315.25
2018-06-21T06:46:46.801Z,100325.84
2018-06-21T06:49:14.773Z,100352.22
2018-06-21T06:51:42.772Z,100372.34
2018-06-21T06:54:11.660Z,100381.75
2018-06-21T06:56:39.849Z,100372.20
2018-06-21T06:59:07.845Z,100371.09
2018-06-21T07:01:35.846Z,100368.90
2018-06-21T07:04:03.929Z,100359.91
2018-06-21T07:06:31.908Z,100359.28
2018-06-21T07:08:59.884Z,100350.26
2018-06-21T07:11:28.792Z,100357.56
2018-06-21T07:13:57.757Z,100355.44
2018-06-21T07:16:26.181Z,100346.61
2018-06-21T07:18:54.179Z,100342.32
2018-06-21T07:21:22.276Z,100337.19
2018-06-21T07:23:50.441Z,100343.78
2018-06-21T07:26:18.457Z,100344.95
2018-06-21T07:28:46.582Z,100345.75
2018-06-21T07:31:14.600Z,100334.66
2018-06-21T07:33:42.584Z,100348.75
2018-06-21T07:36:10.621Z,100350.80
2018-06-21T07:38:38.650Z,100362.43
2018-06-21T07:41:06.702Z,100375.18
2018-06-21T07:43:34.698Z,100367.22
2018-06-21T07:46:02.729Z,100365.17
2018-06-21T07:48:30.724Z,100356.97
2018-06-21T07:50:58.744Z,100369.75
2018-06-21T07:53:26.833Z,100357.20
2018-06-21T07:55:54.821Z,100354.09
2018-06-21T07:58:22.857Z,100344.95
2018-06-21T08:00:50.844Z,100335.48
2018-06-21T08:03:18.845Z,100342.86
2018-06-21T08:05:46.849Z,100353.01
2018-06-21T08:08:14.887Z,100359.21
2018-06-21T08:10:42.907Z,100361.05
2018-06-21T08:13:11.048Z,100351.86
2018-06-21T08:15:39.040Z,100345.86
2018-06-21T08:18:07.076Z,100356.34
2018-06-21T08:20:35.101Z,100360.71
2018-06-21T08:23:03.572Z,100373.37
2018-06-21T08:25:31.544Z,100371.93
2018-06-21T08:27:59.648Z,100377.87
2018-06-21T08:30:27.769Z,100385.95
2018-06-21T08:32:55.789Z,100380.80
2018-06-21T08:35:23.817Z,100374.52
2018-06-21T08:37:51.841Z,100378.17
2018-06-21T08:40:19.841Z,100381.28
2018-06-21T08:42:47.857Z,100391.23
2018-06-21T08:45:15.844Z,100391.80
2018-06-21T08:47:43.829Z,100380.33
2018-06-21T08:50:11.988Z,100396.56
2018-06-21T08:52:39.997Z,100388.20
2018-06-21T08:55:08.025Z,100383.77
2018-06-21T08:57:36.016Z,100392.31
2018-06-21T09:00:04.513Z,100393.25
2018-06-21T09:02:33.803Z,100389.16
2018-06-21T09:05:01.834Z,100392.68
2018-06-21T09:07:29.826Z,100388.43
2018-06-21T09:09:57.813Z,100392.55
2018-06-21T09:12:30.022Z,100404.37
2018-06-21T09:14:59.088Z,100409.91
2018-06-21T09:17:27.116Z,100412.16
2018-06-21T09:19:55.192Z,100409.73
2018-06-21T09:22:23.213Z,100411.11
2018-06-21T09:24:51.270Z,100405.88
2018-06-21T09:27:19.317Z,100408.81
2018-06-21T09:29:47.720Z,100412.73
2018-06-21T09:32:15.973Z,100414.06
2018-06-21T09:34:43.977Z,100413.78
2018-06-21T09:37:11.992Z,100427.28
2018-06-21T09:39:45.395Z,100429.60
2018-06-21T09:42:18.857Z,100430.15
2018-06-21T09:44:52.381Z,100428.97
2018-06-21T09:47:25.790Z,100428.73
2018-06-21T09:49:53.812Z,100427.09
2018-06-21T09:52:21.823Z,100426.59
2018-06-21T09:54:49.956Z,100427.57
2018-06-21T09:57:18.012Z,100433.39
2018-06-21T09:59:46.033Z,100437.70
2018-06-21T10:02:14.033Z,100428.55
2018-06-21T10:04:42.050Z,100433.00
2018-06-21T10:07:10.176Z,100436.63
2018-06-21T10:09:38.261Z,100438.89
2018-06-21T10:12:06.677Z,100439.89
2018-06-21T10:14:34.681Z,100446.95
2018-06-21T10:17:02.844Z,100437.78
2018-06-21T10:19:30.905Z,100432.39
2018-06-21T10:21:58.916Z,100430.63
2018-06-21T10:24:26.912Z,100428.06
2018-06-21T10:26:54.904Z,100420.41
2018-06-21T10:29:22.920Z,100421.81
2018-06-21T10:31:50.906Z,100440.37
2018-06-21T10:34:18.919Z,100478.23
2018-06-21T10:36:46.929Z,100518.32
2018-06-21T10:39:14.937Z,100525.84
2018-06-21T10:41:42.948Z,100527.89
2018-06-21T10:44:11.886Z,100535.99
2018-06-21T10:46:39.867Z,100540.98
2018-06-21T10:49:07.906Z,100540.88
2018-06-21T10:51:36.016Z,100556.89
2018-06-21T10:54:04.253Z,100554.47
2018-06-21T10:56:32.516Z,100537.24
2018-06-21T10:59:00.519Z,100542.06
2018-06-21T11:01:28.822Z,100527.61
2018-06-21T11:03:56.805Z,100525.12
2018-06-21T11:06:25.285Z,100518.61
2018-06-21T11:08:53.284Z,100519.92
2018-06-21T11:11:21.272Z,100531.61
2018-06-21T11:13:49.301Z,100529.48
2018-06-21T11:16:17.269Z,100526.97
2018-06-21T11:18:45.277Z,100538.66
2018-06-21T11:21:13.269Z,100533.21
2018-06-21T11:23:41.261Z,100537.80
2018-06-21T11:26:09.260Z,100538.38
2018-06-21T11:28:37.340Z,100536.22
2018-06-21T11:31:05.307Z,100540.86
2018-06-21T11:33:33.308Z,100543.13
2018-06-21T11:36:01.305Z,100534.50
2018-06-21T11:38:29.340Z,100536.05
2018-06-21T11:40:58.347Z,100523.86
2018-06-21T11:43:26.340Z,100543.03
2018-06-21T11:45:54.333Z,100559.25
2018-06-21T11:48:22.369Z,100562.48
2018-06-21T11:50:50.365Z,100565.59
2018-06-21T11:53:18.402Z,100575.85
2018-06-21T11:55:46.393Z,100594.43
2018-06-21T11:58:14.418Z,100611.29
2018-06-21T12:00:42.436Z,100613.55
2018-06-21T12:03:10.434Z,100614.98
2018-06-21T12:05:38.460Z,100623.13
2018-06-21T12:08:06.465Z,100634.05
2018-06-21T12:10:34.464Z,100611.97
2018-06-21T12:13:02.492Z,100609.46
2018-06-21T12:15:30.556Z,100602.01
2018-06-21T12:17:58.548Z,100602.20
2018-06-21T12:20:26.550Z,100594.53
2018-06-21T12:22:54.673Z,100593.47
2018-06-21T12:25:22.676Z,100599.62
2018-06-21T12:27:50.853Z,100599.09
2018-06-21T12:30:18.893Z,100599.90
2018-06-21T12:32:46.884Z,100605.94
2018-06-21T12:35:14.925Z,100607.37
2018-06-21T12:37:42.942Z,100613.11
2018-06-21T12:40:10.948Z,100628.44
2018-06-21T12:42:39.044Z,100613.99
2018-06-21T12:45:07.033Z,100630.16
2018-06-21T12:47:35.026Z,100623.36
2018-06-21T12:50:03.061Z,100613.58
2018-06-21T12:52:31.200Z,100615.57
2018-06-21T12:54:59.213Z,100631.77
2018-06-21T12:57:27.255Z,100631.52
2018-06-21T12:59:55.309Z,100637.37
2018-06-21T13:02:23.301Z,100629.81
2018-06-21T13:04:51.305Z,100635.72
2018-06-21T13:07:19.369Z,100638.26
2018-06-21T13:09:58.953Z,100642.73
2018-06-21T13:12:39.473Z,100647.74
2018-06-21T13:15:07.596Z,100650.46
2018-06-21T13:17:35.635Z,100640.50
2018-06-21T13:20:04.825Z,100653.86
2018-06-21T13:22:32.820Z,100661.60
2018-06-21T13:25:00.809Z,100675.84
2018-06-21T13:27:28.820Z,100697.28
2018-06-21T13:29:56.995Z,100715.38
2018-06-21T13:32:24.986Z,100714.97
2018-06-21T13:34:53.073Z,100702.77
2018-06-21T13:37:21.033Z,100710.52
2018-06-21T13:39:49.032Z,100715.68
2018-06-21T13:42:17.034Z,100701.72
2018-06-21T13:44:45.139Z,100700.96
2018-06-21T13:47:13.124Z,100712.72
2018-06-21T13:49:41.252Z,100717.97
2018-06-21T13:52:09.252Z,100700.14
2018-06-21T13:54:37.284Z,100723.76
2018-06-21T13:57:05.361Z,100734.22
2018-06-21T13:59:33.384Z,100745.48
2018-06-21T14:02:01.417Z,100743.62
2018-06-21T14:04:29.434Z,100754.75
2018-06-21T14:06:57.464Z,100752.17
2018-06-21T14:09:25.496Z,100762.41
2018-06-21T14:11:53.589Z,100754.25
2018-06-21T14:14:21.609Z,100760.70
2018-06-21T14:16:49.724Z,100772.00
2018-06-21T14:19:17.725Z,100770.03
2018-06-21T14:21:45.750Z,100774.12
2018-06-21T14:24:15.032Z,100796.48
2018-06-21T14:26:43.453Z,100810.28
2018-06-21T14:29:11.465Z,100809.88
2018-06-21T14:31:39.470Z,100797.50
2018-06-21T14:34:07.444Z,100803.23
2018-06-21T14:36:35.541Z,100791.36
2018-06-21T14:39:04.762Z,100790.72
2018-06-21T14:41:32.778Z,100809.20
2018-06-21T14:44:01.286Z,100804.90
2018-06-21T14:46:29.281Z,100815.64
2018-06-21T14:48:57.350Z,100809.28
2018-06-21T14:51:25.345Z,100810.19
2018-06-21T14:53:53.590Z,100814.34
2018-06-21T14:56:21.593Z,100810.51
2018-06-21T14:58:49.569Z,100815.17
2018-06-21T15:01:17.631Z,100807.73
2018-06-21T15:03:45.657Z,100817.05
2018-06-21T15:06:13.692Z,100837.63
2018-06-21T15:08:41.760Z,100839.62
2018-06-21T15:11:09.822Z,100848.94
2018-06-21T15:13:37.785Z,100857.78
2018-06-21T15:16:05.782Z,100843.77
2018-06-21T15:18:34.936Z,100832.88
2018-06-21T15:21:02.969Z,100839.91
2018-06-21T15:23:30.947Z,100830.91
2018-06-21T15:25:59.188Z,100832.66
2018-06-21T15:28:27.173Z,100836.78
2018-06-21T15:30:55.157Z,100841.72
2018-06-21T15:33:23.157Z,100837.61
2018-06-21T15:35:51.261Z,100841.14
2018-06-21T15:38:19.993Z,100840.64
2018-06-21T15:40:48.025Z,100838.91
2018-06-21T15:43:16.109Z,100838.05
2018-06-21T15:45:44.097Z,100845.39
2018-06-21T15:48:12.100Z,100847.53
2018-06-21T15:50:40.096Z,100856.03
2018-06-21T15:53:08.138Z,100853.25
2018-06-21T15:55:36.159Z,100858.30
2018-06-21T15:58:04.301Z,100854.11
2018-06-21T16:00:32.376Z,100865.15
2018-06-21T16:03:00.540Z,100874.13
2018-06-21T16:05:28.562Z,100887.11
2018-06-21T16:07:56.568Z,100899.23
2018-06-21T16:10:24.804Z,100890.84
2018-06-21T16:12:52.846Z,100893.78
2018-06-21T16:15:20.949Z,100895.84
2018-06-21T16:17:48.900Z,100905.66
2018-06-21T16:20:16.888Z,100910.08
2018-06-21T16:22:44.905Z,100913.11
2018-06-21T16:25:12.924Z,100920.02
2018-06-21T16:27:41.104Z,100916.74
2018-06-21T16:30:09.097Z,100918.52
2018-06-21T16:32:37.096Z,100918.16
2018-06-21T16:35:05.085Z,100921.04
2018-06-21T16:37:33.099Z,100923.44
2018-06-21T16:40:01.816Z,100922.59
2018-06-21T16:42:29.947Z,100932.66
2018-06-21T16:44:57.929Z,100934.09
2018-06-21T16:47:25.937Z,100931.98
2018-06-21T16:49:53.951Z,100935.34
2018-06-21T16:52:21.944Z,100927.27
2018-06-21T16:54:50.064Z,100931.36
2018-06-21T16:57:18.037Z,100932.54
2018-06-21T16:59:46.082Z,100930.16
2018-06-21T17:02:14.159Z,100934.16
2018-06-21T17:04:42.168Z,100928.53
2018-06-21T17:07:10.177Z,100928.13
2018-06-21T17:09:38.285Z,100933.00
2018-06-21T17:12:06.293Z,100933.34
2018-06-21T17:14:34.308Z,100933.91
2018-06-21T17:17:02.367Z,100940.95
2018-06-21T17:19:30.419Z,100939.91
2018-06-21T17:21:58.413Z,100934.95
2018-06-21T17:24:26.702Z,100944.34
2018-06-21T17:26:54.712Z,100956.90
2018-06-21T17:29:22.793Z,100952.27
2018-06-21T17:31:50.812Z,100951.42
2018-06-21T17:34:19.226Z,100949.84
2018-06-21T17:36:47.307Z,100955.17
2018-06-21T17:39:15.368Z,100958.95
2018-06-21T17:41:43.408Z,100966.05
2018-06-21T17:44:11.517Z,100960.73
2018-06-21T17:46:39.546Z,100968.60
2018-06-21T17:49:07.711Z,100965.80
2018-06-21T17:51:35.745Z,100967.62
2018-06-21T17:54:03.977Z,100965.63
2018-06-21T17:56:31.995Z,100959.84
2018-06-21T17:59:00.013Z,100964.97
2018-06-21T18:01:28.021Z,100963.36
2018-06-21T18:03:56.015Z,100960.69
2018-06-21T18:06:24.115Z,100967.11
2018-06-21T18:08:52.141Z,100971.58
2018-06-21T18:11:20.226Z,100974.25
2018-06-21T18:13:48.536Z,100982.69
2018-06-21T18:16:16.524Z,100974.45
2018-06-21T18:18:44.705Z,100979.33
2018-06-21T18:21:12.756Z,100984.09
2018-06-21T18:23:40.898Z,100984.42
2018-06-21T18:26:08.928Z,100992.28
2018-06-21T18:28:36.890Z,101008.43
2018-06-21T18:31:04.917Z,101002.26
2018-06-21T18:33:32.913Z,100993.16
2018-06-21T18:36:00.896Z,100991.02
2018-06-21T18:38:29.047Z,100989.20
2018-06-21T18:40:57.124Z,100983.06
2018-06-21T18:43:25.118Z,100988.05
2018-06-21T18:45:53.084Z,100991.88
2018-06-21T18:48:21.079Z,100991.30
2018-06-21T18:50:49.117Z,100985.67
2018-06-21T18:53:17.189Z,100984.14
2018-06-21T18:55:45.445Z,100988.73
2018-06-21T18:58:13.445Z,100986.58
2018-06-21T19:00:41.433Z,100987.53
2018-06-21T19:03:09.413Z,100980.89
2018-06-21T19:05:37.420Z,100985.59
2018-06-21T19:08:11.178Z,100984.02
2018-06-21T19:10:44.660Z,100985.69
2018-06-21T19:13:12.644Z,100984.71
2018-06-21T19:15:40.713Z,100985.99
2018-06-21T19:18:08.734Z,100986.31
2018-06-21T19:20:36.823Z,100983.95
2018-06-21T19:23:05.017Z,100987.93
2018-06-21T19:25:33.078Z,100987.48
2018-06-21T19:28:01.072Z,100989.95
2018-06-21T19:30:29.090Z,100989.23
2018-06-21T19:32:57.092Z,100987.79
2018-06-21T19:35:25.089Z,100989.69
2018-06-21T19:37:53.184Z,100983.08
2018-06-21T19:40:21.184Z,100982.52
2018-06-21T19:42:49.281Z,100984.92
2018-06-21T19:45:17.301Z,100982.47
2018-06-21T19:47:45.294Z,100993.14
2018-06-21T19:50:13.324Z,100995.91
2018-06-21T19:52:41.341Z,100995.03
2018-06-21T19:55:09.314Z,100995.23
2018-06-21T19:57:37.301Z,101000.81
2018-06-21T20:00:05.288Z,100996.56
2018-06-21T20:02:38.857Z,101002.05
2018-06-21T20:05:06.879Z,101004.13
2018-06-21T20:07:34.909Z,101005.69
2018-06-21T20:10:02.934Z,101006.23
2018-06-21T20:12:30.945Z,101008.61
2018-06-21T20:14:58.936Z,101002.47
2018-06-21T20:17:26.977Z,100996.56
2018-06-21T20:20:00.442Z,101002.20
2018-06-21T20:22:28.487Z,101003.25
2018-06-21T20:24:56.743Z,100997.39
2018-06-21T20:27:24.812Z,101002.07
2018-06-21T20:29:53.113Z,101005.48
2018-06-21T20:32:21.142Z,101005.48
2018-06-21T20:34:49.213Z,101001.62
2018-06-21T20:37:17.339Z,101006.25
2018-06-21T20:39:46.058Z,101003.67
2018-06-21T20:42:14.154Z,101003.39
2018-06-21T20:44:42.147Z,101009.06
2018-06-21T20:47:10.152Z,101003.27
2018-06-21T20:49:38.265Z,101004.47
2018-06-21T20:52:10.461Z,101002.86
2018-06-21T20:54:38.478Z,101003.73
2018-06-21T20:57:06.480Z,101004.08
2018-06-21T20:59:34.629Z,101005.03
2018-06-21T21:02:02.632Z,100998.48
2018-06-21T21:04:41.172Z,101007.41
2018-06-21T21:07:09.196Z,101008.81
2018-06-21T21:09:37.239Z,101005.45
2018-06-21T21:12:05.313Z,101001.55
2018-06-21T21:14:33.356Z,101006.09
2018-06-21T21:17:01.377Z,101000.79
2018-06-21T21:19:29.382Z,100999.31
2018-06-21T21:21:57.400Z,100997.69
2018-06-21T21:24:25.395Z,100997.41
2018-06-21T21:26:53.369Z,100992.30
2018-06-21T21:29:21.407Z,100995.42
2018-06-21T21:31:49.401Z,100997.87
2018-06-21T21:34:17.489Z,101000.02
2018-06-21T21:36:45.467Z,100992.92
2018-06-21T21:39:13.477Z,100996.50
2018-06-21T21:41:41.557Z,100991.40
2018-06-21T21:44:10.174Z,100988.79
2018-06-21T21:46:38.183Z,100985.97
2018-06-21T21:49:06.255Z,100983.32
2018-06-21T21:51:34.329Z,100980.01
2018-06-21T21:54:02.374Z,100981.98
2018-06-21T21:56:30.416Z,100983.23
2018-06-21T21:58:58.445Z,100975.39
2018-06-21T22:01:26.477Z,100970.73
2018-06-21T22:03:54.850Z,100980.48
2018-06-21T22:06:23.038Z,100972.99
2018-06-21T22:08:51.140Z,100980.08
2018-06-21T22:11:19.172Z,100979.24
2018-06-21T22:13:47.213Z,100984.49
2018-06-21T22:16:15.218Z,100987.98
2018-06-21T22:18:43.266Z,100978.42
2018-06-21T22:21:11.377Z,100986.06
2018-06-21T22:23:39.416Z,100980.50
2018-06-21T22:26:07.405Z,100980.00
2018-06-21T22:28:35.468Z,100977.57
2018-06-21T22:31:03.467Z,100978.68
2018-06-21T22:33:31.448Z,100973.69
2018-06-21T22:35:59.458Z,100982.54
2018-06-21T22:38:27.441Z,100978.60
2018-06-21T22:40:55.487Z,100967.03
2018-06-21T22:43:23.549Z,100969.60
2018-06-21T22:45:51.611Z,100968.84
2018-06-21T22:48:19.645Z,100969.45
2018-06-21T22:50:47.636Z,100965.47
2018-06-21T22:53:15.633Z,100964.38
2018-06-21T22:55:43.730Z,100962.63
2018-06-21T22:58:11.814Z,100958.67
2018-06-21T23:00:39.757Z,100952.64
2018-06-21T23:03:08.184Z,100953.97
2018-06-21T23:05:36.199Z,100948.76
2018-06-21T23:08:04.221Z,100955.42
2018-06-21T23:10:32.212Z,100947.91
2018-06-21T23:13:00.276Z,100948.02
2018-06-21T23:15:28.305Z,100947.09
2018-06-21T23:17:56.357Z,100951.75
2018-06-21T23:20:24.383Z,100950.25
2018-06-21T23:22:52.392Z,100949.63
2018-06-21T23:25:20.387Z,100948.94
2018-06-21T23:27:48.362Z,100952.48
2018-06-21T23:30:16.462Z,100952.48
2018-06-21T23:32:44.489Z,100953.03
2018-06-21T23:35:12.513Z,100949.34
2018-06-21T23:37:40.484Z,100946.31
2018-06-21T23:40:08.513Z,100946.95
2018-06-21T23:42:36.742Z,100944.27
2018-06-21T23:45:04.708Z,100938.13
2018-06-21T23:47:32.712Z,100936.16
2018-06-21T23:50:00.745Z,100941.64
2018-06-21T23:52:28.752Z,100942.41
2018-06-21T23:54:56.768Z,100941.30
2018-06-21T23:57:25.828Z,100938.82
2018-06-21T23:59:53.832Z,100930.86
